Time;durP1;ratioP1;P1;durP2;ratioP2;P2;SDS_P1;SDS_P2;PMS_P1;PMS_P2;Temp;Humidity;BMP_temperature;BMP_pressure;BME280_temperature;BME280_humidity;BME280_pressure;Samples;Min_cycle;Max_cycle;Signal;HPM_P1;HPM_P2
2021/05/01 15:41:00;;;;;;;41.63;28.92;;;10.00;99.90;;;;;;5161855;23;20074;-78
2021/05/01 15:43:26;;;;;;;35.95;28.17;;;10.00;99.90;;;;;;4988276;28;20088;-75
2021/05/01 15:45:54;;;;;;;36.65;27.67;;;10.00;99.90;;;;;;4984579;28;20805;-75
2021/05/01 15:53:44;;;;;;;41.42;30.63;;;10.00;99.90;;;;;;4990033;28;19928;-74
2021/05/01 15:56:09;;;;;;;41.45;30.48;;;10.00;99.90;;;;;;5010671;28;20030;-74
2021/05/01 15:58:36;;;;;;;43.03;32.67;;;10.00;99.90;;;;;;4981330;28;20457;-74
2021/05/01 16:01:03;;;;;;;41.83;31.92;;;10.00;99.90;;;;;;4976623;28;20031;-75
2021/05/01 16:03:30;;;;;;;40.50;30.17;;;10.10;99.90;;;;;;5002195;28;20034;-75
2021/05/01 16:05:56;;;;;;;40.85;30.55;;;10.00;99.90;;;;;;4978606;28;20056;-77
2021/05/01 16:08:21;;;;;;;44.72;30.98;;;10.00;99.90;;;;;;5010086;28;20045;-74
2021/05/01 16:10:47;;;;;;;44.97;32.35;;;9.90;99.90;;;;;;4993177;28;20082;-75
2021/05/01 16:13:13;;;;;;;47.60;32.92;;;9.90;99.90;;;;;;4993831;28;20030;-75
2021/05/01 16:15:38;;;;;;;42.70;31.85;;;9.90;99.90;;;;;;5003731;28;20034;-73
2021/05/01 16:18:04;;;;;;;40.83;29.85;;;9.90;99.90;;;;;;4993105;28;20034;-72
2021/05/01 16:20:30;;;;;;;46.08;32.53;;;9.90;99.90;;;;;;5009836;28;20323;-73
2021/05/01 16:22:57;;;;;;;46.28;33.58;;;9.90;99.90;;;;;;5010087;28;20050;-71
2021/05/01 16:25:29;;;;;;;42.35;31.00;;;9.90;99.90;;;;;;5008699;28;20038;-73
2021/05/01 16:27:58;;;;;;;40.83;30.40;;;9.90;99.90;;;;;;4992907;28;20037;-72
2021/05/01 16:30:25;;;;;;;39.70;30.50;;;9.90;99.90;;;;;;5012786;28;20022;-74
2021/05/01 16:32:51;;;;;;;40.70;30.95;;;9.90;99.90;;;;;;5001823;28;20036;-72
2021/05/01 16:35:16;;;;;;;44.50;31.77;;;9.90;99.90;;;;;;4996528;28;20034;-71
2021/05/01 16:37:44;;;;;;;47.42;34.28;;;9.90;99.90;;;;;;5006769;28;20030;-74
2021/05/01 16:40:11;;;;;;;43.22;31.25;;;9.80;99.90;;;;;;4991080;28;20037;-69
2021/05/01 16:42:38;;;;;;;44.40;33.28;;;9.80;99.90;;;;;;4993896;28;20026;-71
2021/05/01 16:45:07;;;;;;;46.58;33.97;;;9.70;99.90;;;;;;4987210;28;20033;-72
2021/05/01 16:47:32;;;;;;;47.45;34.30;;;9.70;99.90;;;;;;4994561;28;20446;-70
2021/05/01 16:49:58;;;;;;;45.92;34.42;;;9.70;99.90;;;;;;4992707;28;20120;-70
2021/05/01 16:52:24;;;;;;;45.67;33.38;;;9.70;99.90;;;;;;4989353;28;20434;-71
2021/05/01 16:54:49;;;;;;;49.83;36.00;;;9.60;99.90;;;;;;4987211;28;20080;-72
2021/05/01 16:57:15;;;;;;;48.38;34.75;;;9.60;99.90;;;;;;4994373;28;20034;-70
2021/05/01 16:59:41;;;;;;;44.65;32.97;;;9.60;99.90;;;;;;5003115;28;20458;-80
2021/05/01 17:02:07;;;;;;;46.08;33.90;;;9.60;99.90;;;;;;5011000;28;20025;-74
2021/05/01 17:04:33;;;;;;;50.28;34.60;;;9.50;99.90;;;;;;4996612;28;20348;-73
2021/05/01 17:07:00;;;;;;;47.03;34.83;;;9.50;99.90;;;;;;4984716;28;20045;-72
2021/05/01 17:09:25;;;;;;;49.80;36.53;;;9.40;99.90;;;;;;4983242;28;20486;-72
2021/05/01 17:11:55;;;;;;;44.30;31.88;;;9.40;99.90;;;;;;5011518;28;20057;-76
2021/05/01 17:14:22;;;;;;;51.25;37.00;;;9.40;99.90;;;;;;4968626;28;20474;-75
2021/05/01 17:16:50;;;;;;;51.45;36.80;;;9.30;99.90;;;;;;5012483;28;20334;-75
2021/05/01 17:19:17;;;;;;;50.15;37.08;;;9.30;99.90;;;;;;5031045;28;20040;-82
2021/05/01 17:21:47;;;;;;;50.40;36.38;;;9.30;99.90;;;;;;5023000;28;20022;-80
2021/05/01 17:24:14;;;;;;;49.83;36.80;;;9.30;99.90;;;;;;4976666;28;20093;-81
2021/05/01 17:26:43;;;;;;;49.03;36.08;;;9.20;99.90;;;;;;4984312;28;20030;-73
2021/05/01 17:29:10;;;;;;;47.85;35.00;;;9.20;99.90;;;;;;5020869;28;20026;-73
2021/05/01 17:31:37;;;;;;;47.50;34.58;;;9.20;99.90;;;;;;4988818;28;20031;-72
2021/05/01 17:34:05;;;;;;;46.80;34.17;;;9.10;99.90;;;;;;4974173;28;20030;-71
2021/05/01 17:36:33;;;;;;;44.80;33.00;;;9.10;99.90;;;;;;4992798;28;20038;-72
2021/05/01 17:39:00;;;;;;;51.20;37.15;;;9.10;99.90;;;;;;4992123;28;20042;-83
2021/05/01 17:41:27;;;;;;;56.35;37.40;;;9.00;99.90;;;;;;4993745;28;20034;-81
2021/05/01 17:43:55;;;;;;;52.33;38.47;;;9.00;99.90;;;;;;4992952;28;20525;-87
2021/05/01 17:46:22;;;;;;;53.72;37.60;;;8.90;99.90;;;;;;4986920;28;20065;-86
2021/05/01 17:48:50;;;;;;;60.33;41.58;;;8.90;99.90;;;;;;5011643;28;20064;-74
2021/05/01 17:51:18;;;;;;;57.88;40.60;;;8.90;99.90;;;;;;5008046;28;20095;-79
2021/05/01 17:53:46;;;;;;;59.45;39.72;;;8.80;99.90;;;;;;5011254;28;20129;-79
2021/05/01 17:56:12;;;;;;;57.75;38.47;;;8.80;99.90;;;;;;5009929;28;20120;-81
2021/05/01 17:58:39;;;;;;;58.42;40.72;;;8.80;99.90;;;;;;5010655;28;20105;-79
2021/05/01 18:01:08;;;;;;;59.65;40.83;;;8.80;99.90;;;;;;4994792;28;20493;-82
2021/05/01 18:03:35;;;;;;;62.00;41.15;;;8.70;99.90;;;;;;4996997;28;20027;-86
2021/05/01 18:06:04;;;;;;;62.22;41.72;;;8.70;99.90;;;;;;5010975;28;20366;-70
2021/05/01 18:08:31;;;;;;;58.60;39.95;;;8.70;99.90;;;;;;5004899;28;20026;-76
2021/05/01 18:10:58;;;;;;;60.88;42.22;;;8.60;99.90;;;;;;4975410;28;20026;-84
2021/05/01 18:13:24;;;;;;;63.45;41.22;;;8.60;99.90;;;;;;5000884;28;20018;-78
2021/05/01 18:15:52;;;;;;;62.80;42.50;;;8.60;99.90;;;;;;5006074;28;20037;-88
2021/05/01 18:18:17;;;;;;;62.33;43.40;;;8.60;99.90;;;;;;4998383;28;20073;-85
2021/05/01 18:20:43;;;;;;;59.88;39.85;;;8.50;99.90;;;;;;5002273;28;20054;-86
2021/05/01 18:23:08;;;;;;;63.00;42.80;;;8.50;99.90;;;;;;4982754;28;20062;-81
2021/05/01 18:25:34;;;;;;;68.25;44.83;;;8.40;99.90;;;;;;5011437;28;20030;-81
2021/05/01 18:28:02;;;;;;;65.43;43.15;;;8.40;99.90;;;;;;4994855;28;20489;-83
2021/05/01 18:30:27;;;;;;;66.60;45.67;;;8.40;99.90;;;;;;5007232;28;20027;-75
2021/05/01 18:32:54;;;;;;;72.97;45.78;;;8.40;99.90;;;;;;5005497;28;20026;-76
2021/05/01 18:35:21;;;;;;;67.28;45.58;;;8.40;99.90;;;;;;4973037;28;20422;-78
2021/05/01 18:37:50;;;;;;;73.72;47.38;;;8.40;99.90;;;;;;4978706;28;20101;-74
2021/05/01 18:40:17;;;;;;;67.85;44.17;;;8.40;99.90;;;;;;4982437;28;20042;-89
2021/05/01 18:42:45;;;;;;;65.47;44.53;;;8.30;99.90;;;;;;4999968;28;20033;-75
2021/05/01 18:45:13;;;;;;;71.07;45.38;;;8.30;99.90;;;;;;4984727;28;20545;-73
2021/05/01 18:47:40;;;;;;;67.88;43.08;;;8.30;99.90;;;;;;5000099;28;20022;-75
2021/05/01 18:50:07;;;;;;;74.38;47.30;;;8.20;99.90;;;;;;4979159;28;20113;-76
2021/05/01 18:52:33;;;;;;;72.47;47.30;;;8.20;99.90;;;;;;4998396;28;20043;-80
2021/05/01 18:54:59;;;;;;;74.88;46.53;;;8.20;99.90;;;;;;4979048;28;20080;-82
2021/05/01 18:57:25;;;;;;;71.93;46.70;;;8.20;99.90;;;;;;4981184;28;20061;-83
2021/05/01 18:59:52;;;;;;;67.88;44.22;;;8.20;99.90;;;;;;4983295;28;20393;-80
2021/05/01 19:02:19;;;;;;;72.75;46.97;;;8.20;99.90;;;;;;4981669;28;20121;-75
2021/05/01 19:04:45;;;;;;;77.43;47.83;;;8.20;99.90;;;;;;4998498;28;20116;-74
2021/05/01 19:07:11;;;;;;;72.82;47.90;;;8.10;99.90;;;;;;4987533;28;20030;-75
2021/05/01 19:09:37;;;;;;;73.78;46.03;;;8.10;99.90;;;;;;4999328;28;20105;-76
2021/05/01 19:12:07;;;;;;;77.10;49.80;;;8.10;99.90;;;;;;5000356;28;20164;-76
2021/05/01 19:14:33;;;;;;;67.10;44.80;;;8.10;99.90;;;;;;5002293;28;20030;-75
2021/05/01 19:17:04;;;;;;;68.80;43.45;;;8.00;99.90;;;;;;4998459;28;20034;-75
2021/05/01 19:19:30;;;;;;;74.63;44.58;;;8.00;99.90;;;;;;5002315;28;20034;-77
2021/05/01 19:21:57;;;;;;;68.80;45.35;;;8.00;99.90;;;;;;5005532;28;20038;-73
2021/05/01 19:24:24;;;;;;;68.40;42.30;;;8.00;99.90;;;;;;5007437;28;20072;-74
2021/05/01 19:26:51;;;;;;;62.50;41.28;;;8.00;99.90;;;;;;5007005;28;20022;-73
2021/05/01 19:29:17;;;;;;;59.83;40.33;;;8.00;99.90;;;;;;4987158;28;20505;-77
2021/05/01 19:31:48;;;;;;;65.45;43.58;;;7.90;99.90;;;;;;5013745;28;20032;-75
2021/05/01 19:34:15;;;;;;;66.28;43.00;;;7.90;99.90;;;;;;4994260;28;20053;-79
2021/05/01 19:36:42;;;;;;;72.47;44.70;;;7.90;99.90;;;;;;4983167;28;20037;-79
2021/05/01 19:39:10;;;;;;;66.53;42.90;;;7.90;99.90;;;;;;5004416;28;20084;-80
2021/05/01 19:41:40;;;;;;;72.45;44.80;;;7.80;99.90;;;;;;5003740;28;20022;-81
2021/05/01 19:44:07;;;;;;;62.30;41.45;;;7.80;99.90;;;;;;5000578;28;20474;-80
2021/05/01 19:46:35;;;;;;;69.60;43.92;;;7.80;99.90;;;;;;4982660;28;20030;-79
2021/05/01 19:49:01;;;;;;;71.68;44.58;;;7.70;99.90;;;;;;5000622;28;20137;-79
2021/05/01 19:51:27;;;;;;;70.78;44.67;;;7.70;99.90;;;;;;5000233;28;20045;-78
2021/05/01 19:53:53;;;;;;;63.13;42.85;;;7.70;99.90;;;;;;5001205;28;20058;-79
2021/05/01 19:56:19;;;;;;;77.88;46.83;;;7.70;99.90;;;;;;5005520;28;20054;-73
2021/05/01 19:58:44;;;;;;;69.30;44.53;;;7.70;99.90;;;;;;4983376;28;20031;-73
2021/05/01 20:01:10;;;;;;;76.30;48.03;;;7.70;99.90;;;;;;4999941;28;20057;-74
2021/05/01 20:03:36;;;;;;;85.32;50.95;;;7.70;99.90;;;;;;4969551;28;20030;-73
2021/05/01 20:06:08;;;;;;;92.97;54.83;;;7.70;99.90;;;;;;4982701;28;20036;-74
2021/05/01 20:08:37;;;;;;;85.88;52.33;;;7.70;99.90;;;;;;4983823;28;20485;-74
2021/05/01 20:11:05;;;;;;;84.43;50.75;;;7.70;99.90;;;;;;4998668;28;20034;-73
2021/05/01 20:13:32;;;;;;;83.57;50.28;;;7.70;99.90;;;;;;4998938;28;20118;-73
2021/05/01 20:15:58;;;;;;;81.22;50.45;;;7.60;99.90;;;;;;4982357;28;20049;-73
2021/05/01 20:18:26;;;;;;;80.35;48.15;;;7.60;99.90;;;;;;4986164;28;20030;-73
2021/05/01 20:20:52;;;;;;;77.53;48.47;;;7.60;99.90;;;;;;4983799;28;20026;-72
2021/05/01 20:23:18;;;;;;;72.38;43.65;;;7.60;99.90;;;;;;5001699;28;20048;-72
2021/05/01 20:25:43;;;;;;;73.70;46.05;;;7.50;99.90;;;;;;4997900;28;20030;-72
2021/05/01 20:28:09;;;;;;;67.82;44.35;;;7.50;99.90;;;;;;4981447;28;20938;-72
2021/05/01 20:30:37;;;;;;;70.57;44.38;;;7.50;99.90;;;;;;4984925;28;20096;-72
2021/05/01 20:33:03;;;;;;;65.60;41.70;;;7.50;99.90;;;;;;5003854;28;20026;-72
2021/05/01 20:35:30;;;;;;;66.03;42.75;;;7.40;99.90;;;;;;4998092;28;20052;-73
2021/05/01 20:37:56;;;;;;;67.53;41.50;;;7.40;99.90;;;;;;4996997;28;20026;-72
2021/05/01 20:40:22;;;;;;;67.60;42.75;;;7.40;99.90;;;;;;4983651;28;20025;-73
2021/05/01 20:42:48;;;;;;;63.10;38.85;;;7.40;99.90;;;;;;5004618;28;20030;-73
2021/05/01 20:45:16;;;;;;;65.45;43.00;;;7.40;99.90;;;;;;5004659;28;20394;-73
2021/05/01 20:47:43;;;;;;;65.90;42.13;;;7.40;99.90;;;;;;4981528;28;20109;-73
2021/05/01 20:50:09;;;;;;;66.60;42.83;;;7.40;99.90;;;;;;4998472;28;20717;-72
2021/05/01 20:52:35;;;;;;;67.43;44.38;;;7.40;99.90;;;;;;5006478;28;20125;-73
2021/05/01 20:55:04;;;;;;;67.68;41.58;;;7.40;99.90;;;;;;4983188;28;20042;-72
2021/05/01 20:57:33;;;;;;;75.50;45.30;;;7.40;99.90;;;;;;5004348;28;20069;-73
2021/05/01 20:59:59;;;;;;;75.43;46.58;;;7.40;99.90;;;;;;5010063;28;20034;-73
2021/05/01 21:02:25;;;;;;;76.35;45.88;;;7.40;99.90;;;;;;5014335;28;20025;-72
2021/05/01 21:04:51;;;;;;;79.50;46.83;;;7.40;99.90;;;;;;4978364;28;20038;-72
2021/05/01 21:07:17;;;;;;;75.47;44.28;;;7.40;99.90;;;;;;5008327;28;20084;-72
2021/05/01 21:09:43;;;;;;;70.45;44.63;;;7.30;99.90;;;;;;5011895;28;20022;-73
2021/05/01 21:12:08;;;;;;;72.72;44.25;;;7.30;99.90;;;;;;4991744;28;20029;-73
2021/05/01 21:14:35;;;;;;;74.18;46.35;;;7.30;99.90;;;;;;5007550;28;20147;-73
2021/05/01 21:17:01;;;;;;;71.28;44.75;;;7.30;99.90;;;;;;5008797;28;20026;-72
2021/05/01 21:19:28;;;;;;;72.97;43.47;;;7.30;99.90;;;;;;4997329;28;20471;-73
2021/05/01 21:21:54;;;;;;;69.80;43.63;;;7.30;99.90;;;;;;4993744;28;20060;-73
2021/05/01 21:24:20;;;;;;;77.30;45.53;;;7.30;99.90;;;;;;4975438;28;20114;-74
2021/05/01 21:26:47;;;;;;;71.80;43.13;;;7.40;99.90;;;;;;5004495;28;20393;-73
2021/05/01 21:29:12;;;;;;;72.75;45.08;;;7.30;99.90;;;;;;5010892;28;20034;-73
2021/05/01 21:31:38;;;;;;;69.22;44.97;;;7.30;99.90;;;;;;4993949;28;20033;-73
2021/05/01 21:34:05;;;;;;;71.93;42.45;;;7.30;99.90;;;;;;4966294;28;20146;-73
2021/05/01 21:36:32;;;;;;;65.80;42.63;;;7.30;99.90;;;;;;4994757;28;20034;-73
2021/05/01 21:38:59;;;;;;;63.72;41.55;;;7.30;99.90;;;;;;4993249;28;20041;-73
2021/05/01 21:41:26;;;;;;;67.30;42.03;;;7.30;99.90;;;;;;5011987;28;20034;-73
2021/05/01 21:43:52;;;;;;;70.28;41.70;;;7.30;99.90;;;;;;5008058;28;20048;-73
2021/05/01 21:46:18;;;;;;;68.97;42.28;;;7.30;99.90;;;;;;4993377;28;20038;-73
2021/05/01 21:48:45;;;;;;;70.85;43.88;;;7.30;99.90;;;;;;5009874;28;20030;-73
2021/05/01 21:51:13;;;;;;;67.85;42.40;;;7.30;99.90;;;;;;4974271;28;20022;-73
2021/05/01 21:53:40;;;;;;;65.75;43.20;;;7.30;99.90;;;;;;4975903;28;20108;-73
2021/05/01 21:56:05;;;;;;;67.93;41.00;;;7.30;99.90;;;;;;4999646;28;20048;-73
2021/05/01 21:58:31;;;;;;;68.25;43.10;;;7.30;99.90;;;;;;5010200;28;20464;-73
2021/05/01 22:01:07;;;;;;;70.60;45.15;;;7.30;99.90;;;;;;4987526;28;20458;-73
2021/05/01 22:03:33;;;;;;;73.63;46.33;;;7.30;99.90;;;;;;4984646;28;20061;-73
2021/05/01 22:06:00;;;;;;;75.78;46.75;;;7.20;99.90;;;;;;4986805;28;20057;-73
2021/05/01 22:08:28;;;;;;;74.90;45.70;;;7.20;99.90;;;;;;4995979;28;20060;-73
2021/05/01 22:10:56;;;;;;;78.03;45.95;;;7.20;99.90;;;;;;5008928;28;20026;-73
2021/05/01 22:13:23;;;;;;;77.88;47.33;;;7.20;99.90;;;;;;5011268;28;20387;-73
2021/05/01 22:15:52;;;;;;;73.82;47.47;;;7.20;99.90;;;;;;4984902;28;20041;-73
2021/05/01 22:18:19;;;;;;;75.20;46.72;;;7.10;99.90;;;;;;4982875;28;20035;-73
2021/05/01 22:20:51;;;;;;;77.68;48.33;;;7.10;99.90;;;;;;5006188;28;20136;-73
2021/05/01 22:26:00;;;;;;;75.97;46.25;;;7.10;99.90;;;;;;4995567;28;20150;-73
2021/05/01 22:28:29;;;;;;;81.00;47.25;;;7.10;99.90;;;;;;4974786;28;20043;-73
2021/05/01 22:30:55;;;;;;;80.40;46.97;;;7.00;99.90;;;;;;4991293;28;20065;-73
2021/05/01 22:33:21;;;;;;;73.68;43.72;;;7.00;99.90;;;;;;4974942;28;20082;-73
2021/05/01 22:35:47;;;;;;;77.88;45.35;;;7.00;99.90;;;;;;4977738;28;20034;-73
2021/05/01 22:38:13;;;;;;;67.45;42.60;;;7.00;99.90;;;;;;5014068;28;20491;-73
2021/05/01 22:40:38;;;;;;;75.57;45.28;;;7.00;99.90;;;;;;4998684;28;20052;-73
2021/05/01 22:43:05;;;;;;;78.57;45.45;;;7.00;99.90;;;;;;4992278;28;20034;-73
2021/05/01 22:45:31;;;;;;;69.75;43.03;;;6.90;99.90;;;;;;5012609;28;20037;-73
2021/05/01 22:47:58;;;;;;;66.63;42.20;;;6.80;99.90;;;;;;4996570;28;20033;-73
2021/05/01 22:50:24;;;;;;;64.60;41.75;;;6.80;99.90;;;;;;4981405;28;20136;-73
2021/05/01 22:52:50;;;;;;;70.95;43.55;;;6.80;99.90;;;;;;5012622;28;20057;-72
2021/05/01 22:55:15;;;;;;;67.80;43.28;;;6.70;99.90;;;;;;5010045;28;20038;-73
2021/05/01 22:57:42;;;;;;;74.80;44.75;;;6.70;99.90;;;;;;4986215;28;20033;-73
2021/05/01 23:00:15;;;;;;;75.70;44.05;;;6.70;99.90;;;;;;4995222;28;20044;-73
2021/05/01 23:02:41;;;;;;;69.13;43.20;;;6.70;99.90;;;;;;4982813;28;20061;-73
2021/05/01 23:05:09;;;;;;;75.00;45.97;;;6.80;99.90;;;;;;4998266;28;20534;-73
2021/05/01 23:07:35;;;;;;;80.65;44.67;;;6.70;99.90;;;;;;4977990;28;20475;-73
2021/05/01 23:10:01;;;;;;;75.45;44.72;;;6.70;99.90;;;;;;4986448;28;20026;-73
2021/05/01 23:12:30;;;;;;;74.93;43.25;;;6.60;99.90;;;;;;4979138;28;20430;-73
2021/05/01 23:14:58;;;;;;;61.78;38.38;;;6.60;99.90;;;;;;4988872;28;20066;-73
2021/05/01 23:17:26;;;;;;;57.75;37.75;;;6.60;99.90;;;;;;4974171;28;20105;-73
2021/05/01 23:19:55;;;;;;;56.38;35.88;;;6.60;99.90;;;;;;5002393;28;20033;-72
2021/05/01 23:22:24;;;;;;;53.17;36.63;;;6.70;99.90;;;;;;5009585;28;20194;-73
2021/05/01 23:24:50;;;;;;;59.70;38.97;;;6.50;99.90;;;;;;5013067;28;20030;-73
2021/05/01 23:27:17;;;;;;;61.20;38.55;;;6.50;99.90;;;;;;4996324;28;20450;-73
2021/05/01 23:29:46;;;;;;;56.38;35.30;;;6.40;99.90;;;;;;4994992;28;20425;-73
2021/05/01 23:32:13;;;;;;;58.80;37.47;;;6.40;99.90;;;;;;5006016;28;20106;-73
2021/05/01 23:34:42;;;;;;;58.97;37.80;;;6.40;99.90;;;;;;5003366;28;20486;-73
2021/05/01 23:37:09;;;;;;;59.67;37.28;;;6.40;99.90;;;;;;5008030;28;20398;-73
2021/05/01 23:39:35;;;;;;;67.47;40.83;;;6.30;99.90;;;;;;5013923;28;20030;-73
2021/05/01 23:42:01;;;;;;;63.97;39.70;;;6.30;99.90;;;;;;5009090;28;20041;-73
2021/05/01 23:44:27;;;;;;;65.65;41.50;;;6.20;99.90;;;;;;4990796;28;20091;-73
2021/05/01 23:46:53;;;;;;;65.53;39.80;;;6.20;99.90;;;;;;4994622;28;20089;-72
2021/05/01 23:49:21;;;;;;;65.63;41.67;;;6.20;99.90;;;;;;5001515;28;20028;-73
2021/05/01 23:51:47;;;;;;;61.22;39.85;;;6.20;99.90;;;;;;5012866;28;20402;-73
2021/05/01 23:54:15;;;;;;;68.70;39.60;;;6.20;99.90;;;;;;4995062;28;20077;-73
2021/05/01 23:56:43;;;;;;;63.08;40.53;;;6.20;99.90;;;;;;5011677;28;20058;-74
2021/05/01 23:59:10;;;;;;;63.30;40.78;;;6.20;99.90;;;;;;5012847;28;20025;-74
